This is the latest recevied weather packets stored in our database for station/object N7WGJ. If no packets are shown the sender has not sent any weather packets the latest 10 day(s).
| Time | Temp. | Humidity | Pressure | Rain* | Wind** | Luminosity | Snow |
|---|---|---|---|---|---|---|---|
| 1788376900 | 16.67° C | 82% | 1005.5 hPa | 1.02 mm | - | - | - |
| 1788376285 | 16.67° C | 85% | 1005.6 hPa | 1.02 mm | - | - | - |
| 1788375708 | 16.67° C | 83% | 1005.7 hPa | 1.02 mm | - | - | - |
| 1788375100 | 16.67° C | 84% | 1005.8 hPa | 1.02 mm | - | - | - |
| 1788374501 | 16.67° C | 82% | 1005.8 hPa | 1.02 mm | - | - | - |
| 1788373901 | 19.44° C | 70% | 1006 hPa | 0.25 mm | - | - | - |
| 1788373304 | 20° C | 61% | 1005.4 hPa | 0 mm | - | - | - |
| 1788372703 | 20.56° C | 62% | 1005.5 hPa | 0 mm | - | - | - |
| 1788372100 | 20° C | 63% | 1005.6 hPa | 0 mm | - | - | - |
| 1788371490 | 19.44° C | 63% | 1005.7 hPa | 0 mm | - | - | - |
| 1788370894 | 18.89° C | 66% | 1005.8 hPa | 0 mm | - | - | - |
| 1788370289 | 18.89° C | 66% | 1006 hPa | 0 mm | - | - | - |
| 1788369690 | 18.33° C | 68% | 1006.1 hPa | 0 mm | - | - | - |
| 1788369094 | 18.33° C | 68% | 1006.1 hPa | 0 mm | - | - | - |
| 1788368515 | 17.78° C | 69% | 1006.2 hPa | 0 mm | - | - | - |
| 1788367885 | 17.78° C | 70% | 1006.4 hPa | 0 mm | - | - | - |
| 1788367301 | 17.78° C | 71% | 1006.4 hPa | 0 mm | - | - | - |
| 1788366701 | 17.22° C | 72% | 1006.5 hPa | 0 mm | - | - | - |
| 1788366103 | 17.22° C | 73% | 1006.6 hPa | 0 mm | - | - | - |
| 1788365486 | 17.22° C | 73% | 1006.7 hPa | 0 mm | - | - | - |
| 1788364901 | 17.22° C | 73% | 1006.8 hPa | 0 mm | - | - | - |
| 1788364290 | 17.22° C | 73% | 1006.9 hPa | 0 mm | - | - | - |
| 1788363686 | 16.67° C | 75% | 1007 hPa | 0 mm | - | - | - |
| 1788363089 | 16.67° C | 76% | 1007.1 hPa | 0 mm | - | - | - |
| 1788362504 | 16.67° C | 76% | 1007.2 hPa | 0 mm | - | - | - |
* Rain latest hour (hover to see other rain measurements)
** Current wind speed in m/s (hover to see current wind gust speed)